Time;durP1;ratioP1;P1;durP2;ratioP2;P2;SDS_P1;SDS_P2;PMS_P1;PMS_P2;Temp;Humidity;BMP_temperature;BMP_pressure;BME280_temperature;BME280_humidity;BME280_pressure;Samples;Min_cycle;Max_cycle;Signal;HPM_P1;HPM_P2
2023/09/27 00:01:37;;;;;;;18.67;16.97;;;16.40;81.20;;;;;;6186906;28;20239;-81
2023/09/27 00:04:41;;;;;;;18.87;17.03;;;16.40;81.20;;;;;;6189657;28;20871;-81
2023/09/27 00:07:44;;;;;;;18.00;16.40;;;16.40;81.30;;;;;;6198673;28;20870;-80
2023/09/27 00:10:48;;;;;;;20.63;18.60;;;16.30;81.30;;;;;;6189523;28;20270;-80
2023/09/27 00:13:52;;;;;;;18.67;17.07;;;16.20;81.50;;;;;;6187773;28;20748;-79
2023/09/27 00:16:55;;;;;;;17.27;15.67;;;16.20;81.50;;;;;;6189462;28;20236;-82
2023/09/27 00:19:58;;;;;;;17.23;15.73;;;16.20;81.50;;;;;;6189233;28;20691;-81
2023/09/27 00:23:01;;;;;;;17.00;15.50;;;16.10;81.50;;;;;;6188977;28;20235;-80
2023/09/27 00:26:06;;;;;;;17.50;16.00;;;16.10;81.50;;;;;;6187533;28;20720;-79
2023/09/27 00:29:09;;;;;;;17.33;15.83;;;16.00;81.50;;;;;;6189353;28;20236;-80
2023/09/27 00:32:13;;;;;;;16.93;15.53;;;16.00;81.50;;;;;;6185958;28;20251;-81
2023/09/27 00:35:21;;;;;;;16.67;15.27;;;16.00;81.50;;;;;;6188230;28;20251;-79
2023/09/27 00:38:24;;;;;;;16.43;15.03;;;16.00;81.50;;;;;;6174386;28;20232;-81
2023/09/27 00:41:29;;;;;;;17.70;16.00;;;15.90;81.50;;;;;;6187551;28;20236;-81
2023/09/27 00:44:32;;;;;;;16.20;14.80;;;15.80;81.60;;;;;;6187020;28;20744;-80
2023/09/27 00:47:37;;;;;;;17.03;15.63;;;15.80;81.70;;;;;;6187261;28;20727;-80
2023/09/27 00:50:41;;;;;;;18.10;16.60;;;15.80;81.70;;;;;;6187111;28;20254;-81
2023/09/27 00:53:46;;;;;;;19.13;17.33;;;15.80;81.80;;;;;;6171988;28;20231;-81
2023/09/27 00:56:52;;;;;;;19.07;17.33;;;15.80;81.80;;;;;;6187357;28;20236;-80
2023/09/27 00:59:55;;;;;;;18.00;16.43;;;15.70;81.90;;;;;;6181379;28;20411;-79
2023/09/27 01:02:59;;;;;;;19.40;17.60;;;15.60;81.90;;;;;;6195062;28;20232;-82
2023/09/27 01:06:03;;;;;;;19.47;17.67;;;15.60;82.00;;;;;;6190064;28;20228;-81
2023/09/27 01:09:06;;;;;;;18.27;16.67;;;15.60;82.00;;;;;;6176570;28;20271;-81
2023/09/27 01:12:11;;;;;;;19.37;17.77;;;15.60;82.10;;;;;;6182783;28;20731;-81
2023/09/27 01:15:14;;;;;;;19.27;17.47;;;15.60;82.10;;;;;;6188050;28;20862;-80
2023/09/27 01:18:17;;;;;;;19.43;17.63;;;15.60;82.20;;;;;;6188018;28;20819;-82
2023/09/27 01:21:20;;;;;;;19.93;18.13;;;15.60;82.20;;;;;;6186672;28;20251;-81
2023/09/27 01:24:26;;;;;;;19.53;17.40;;;15.60;82.20;;;;;;6187154;28;20240;-81
2023/09/27 01:27:29;;;;;;;19.43;17.60;;;15.50;82.30;;;;;;6187704;28;20316;-81
2023/09/27 01:30:33;;;;;;;20.87;18.83;;;15.50;82.30;;;;;;6187231;28;20905;-80
2023/09/27 01:33:36;;;;;;;19.33;17.60;;;15.50;82.30;;;;;;6188913;28;20244;-79
2023/09/27 01:36:39;;;;;;;21.57;19.47;;;15.50;82.40;;;;;;6179473;28;20247;-80
2023/09/27 01:39:44;;;;;;;19.53;17.90;;;15.50;82.40;;;;;;6190928;28;20235;-80
2023/09/27 01:42:48;;;;;;;21.47;19.50;;;15.40;82.40;;;;;;6192025;28;20283;-80
2023/09/27 01:45:51;;;;;;;20.37;18.60;;;15.40;82.50;;;;;;6191847;28;20374;-81
2023/09/27 01:48:54;;;;;;;19.73;17.97;;;15.40;82.50;;;;;;6193084;28;20228;-81
2023/09/27 01:51:58;;;;;;;20.23;18.40;;;15.40;82.60;;;;;;6184192;28;20314;-81
2023/09/27 01:55:05;;;;;;;22.57;20.40;;;15.30;82.60;;;;;;6191184;28;20235;-81
2023/09/27 01:58:08;;;;;;;24.20;21.63;;;15.30;82.70;;;;;;6192375;28;20244;-80
2023/09/27 02:01:11;;;;;;;24.57;22.10;;;15.30;82.90;;;;;;6188266;28;20250;-81
2023/09/27 02:04:14;;;;;;;22.37;19.97;;;15.30;82.90;;;;;;6189975;28;20254;-81
2023/09/27 02:07:17;;;;;;;21.90;19.73;;;15.30;82.90;;;;;;6190650;28;20243;-79
2023/09/27 02:10:22;;;;;;;20.73;18.83;;;15.30;83.00;;;;;;6186824;28;20236;-81
2023/09/27 02:13:25;;;;;;;21.77;19.73;;;15.30;83.00;;;;;;6192008;28;20248;-81
2023/09/27 02:16:28;;;;;;;21.37;19.30;;;15.20;83.00;;;;;;6191389;28;20271;-81
2023/09/27 02:19:31;;;;;;;22.07;19.87;;;15.20;83.10;;;;;;6191316;28;20239;-80
2023/09/27 02:22:35;;;;;;;19.97;18.10;;;15.20;83.20;;;;;;6192404;28;20302;-79
2023/09/27 02:25:39;;;;;;;20.37;18.57;;;15.20;83.20;;;;;;6186189;28;20236;-79
2023/09/27 02:28:43;;;;;;;19.83;18.03;;;15.20;83.20;;;;;;6190787;28;20244;-81
2023/09/27 02:31:46;;;;;;;23.97;21.57;;;15.20;83.20;;;;;;6190905;28;20271;-80
2023/09/27 02:34:49;;;;;;;21.47;19.37;;;15.20;83.30;;;;;;6186504;28;20247;-81
2023/09/27 02:37:56;;;;;;;21.30;19.40;;;15.10;83.30;;;;;;6188869;28;20366;-79
2023/09/27 02:41:02;;;;;;;21.37;19.37;;;15.10;83.30;;;;;;6185577;28;20228;-80
2023/09/27 02:44:06;;;;;;;20.57;18.60;;;15.00;83.30;;;;;;6185858;28;20266;-81
2023/09/27 02:47:10;;;;;;;20.53;18.50;;;15.00;83.30;;;;;;6183002;28;20228;-80
2023/09/27 02:50:14;;;;;;;20.53;18.53;;;15.00;83.40;;;;;;6189539;28;20244;-80
2023/09/27 02:53:17;;;;;;;19.57;17.87;;;15.00;83.40;;;;;;6183077;28;20710;-79
2023/09/27 02:56:22;;;;;;;20.63;18.73;;;15.00;83.40;;;;;;6190656;28;20247;-79
2023/09/27 02:59:25;;;;;;;19.83;18.07;;;14.90;83.30;;;;;;6190725;28;20331;-81
2023/09/27 03:02:28;;;;;;;19.80;17.90;;;14.90;83.40;;;;;;6186689;28;20636;-81
2023/09/27 03:05:36;;;;;;;20.60;18.60;;;14.90;83.40;;;;;;6188831;28;20326;-81
2023/09/27 03:08:39;;;;;;;20.70;18.57;;;14.90;83.50;;;;;;6187648;28;20242;-82
2023/09/27 03:11:44;;;;;;;20.50;18.70;;;14.80;83.50;;;;;;6182627;28;20320;-79
2023/09/27 03:14:47;;;;;;;21.30;19.30;;;14.80;83.60;;;;;;6189517;28;20244;-81
2023/09/27 03:17:50;;;;;;;20.20;18.33;;;14.80;83.60;;;;;;6190104;28;20821;-80
2023/09/27 03:20:53;;;;;;;21.47;19.37;;;14.80;83.60;;;;;;6184673;28;20873;-81
2023/09/27 03:23:57;;;;;;;20.57;18.57;;;14.80;83.60;;;;;;6187447;28;21228;-81
2023/09/27 03:27:03;;;;;;;20.27;18.37;;;14.70;83.70;;;;;;6180646;28;20231;-82
2023/09/27 03:30:07;;;;;;;20.40;18.50;;;14.70;83.70;;;;;;6189823;28;20236;-80
2023/09/27 03:33:10;;;;;;;21.77;19.57;;;14.70;83.70;;;;;;6177708;28;20263;-81
2023/09/27 03:36:14;;;;;;;25.50;21.67;;;14.70;83.80;;;;;;6188249;28;20243;-81
2023/09/27 03:39:22;;;;;;;23.50;21.10;;;14.70;83.90;;;;;;6188352;28;20232;-81
2023/09/27 03:42:26;;;;;;;23.57;21.17;;;14.70;84.00;;;;;;6180801;28;20347;-81
2023/09/27 03:45:30;;;;;;;24.07;21.63;;;14.70;84.00;;;;;;6188766;28;20322;-81
2023/09/27 03:48:34;;;;;;;26.23;23.40;;;14.80;84.00;;;;;;6189180;28;20267;-80
2023/09/27 03:51:40;;;;;;;25.20;22.67;;;14.80;84.10;;;;;;6178294;28;20611;-81
2023/09/27 03:54:43;;;;;;;26.37;23.67;;;14.80;84.30;;;;;;6182539;28;20239;-81
2023/09/27 03:57:47;;;;;;;24.63;22.20;;;14.80;84.30;;;;;;6189400;28;20351;-79
2023/09/27 04:00:51;;;;;;;24.50;21.90;;;14.80;84.30;;;;;;6188475;28;20247;-80
2023/09/27 04:03:54;;;;;;;24.03;21.63;;;14.80;84.30;;;;;;6189421;28;20320;-78
2023/09/27 04:06:58;;;;;;;23.60;21.10;;;14.80;84.30;;;;;;6186043;28;20237;-83
2023/09/27 04:10:01;;;;;;;24.00;21.60;;;14.80;84.40;;;;;;6180294;28;20335;-81
2023/09/27 04:13:06;;;;;;;23.70;21.40;;;14.80;84.40;;;;;;6187692;28;20236;-81
2023/09/27 04:16:09;;;;;;;21.93;19.83;;;14.80;84.50;;;;;;6189355;28;20244;-81
2023/09/27 04:19:13;;;;;;;21.47;19.43;;;14.80;84.40;;;;;;6187922;28;20240;-79
2023/09/27 04:22:16;;;;;;;21.47;19.27;;;14.80;84.40;;;;;;6185618;28;20228;-81
2023/09/27 04:25:19;;;;;;;21.77;19.67;;;14.80;84.40;;;;;;6188547;28;20236;-81
2023/09/27 04:28:24;;;;;;;21.20;19.30;;;14.70;84.50;;;;;;6189360;28;20318;-82
2023/09/27 04:31:27;;;;;;;20.13;18.43;;;14.70;84.40;;;;;;6182436;28;20241;-83
2023/09/27 04:34:30;;;;;;;20.70;18.67;;;14.70;84.50;;;;;;6180893;28;20803;-82
2023/09/27 04:37:34;;;;;;;21.17;19.27;;;14.70;84.40;;;;;;6188373;28;20240;-82
2023/09/27 04:40:37;;;;;;;18.80;17.10;;;14.70;84.50;;;;;;6182576;28;20580;-83
2023/09/27 04:43:42;;;;;;;19.77;17.97;;;14.70;84.50;;;;;;6181932;28;20255;-83
2023/09/27 04:46:46;;;;;;;19.17;17.47;;;14.60;84.40;;;;;;6181446;28;20703;-84
2023/09/27 04:49:49;;;;;;;19.07;17.40;;;14.60;84.40;;;;;;6179534;28;20248;-81
2023/09/27 04:52:52;;;;;;;19.13;17.43;;;14.50;84.40;;;;;;6188618;28;20239;-81
2023/09/27 04:55:55;;;;;;;18.30;16.70;;;14.50;84.40;;;;;;6187692;28;20256;-81
2023/09/27 04:59:03;;;;;;;20.57;18.67;;;14.50;84.30;;;;;;6188535;28;20965;-82
2023/09/27 05:02:07;;;;;;;20.00;18.20;;;14.50;84.30;;;;;;6188044;28;20272;-81
2023/09/27 05:05:10;;;;;;;18.67;16.93;;;14.40;84.30;;;;;;6187889;28;20264;-83
2023/09/27 05:08:13;;;;;;;19.53;17.83;;;14.40;84.30;;;;;;6188397;28;20239;-80
2023/09/27 05:11:18;;;;;;;20.10;18.30;;;14.40;84.30;;;;;;6184761;28;20227;-81
2023/09/27 05:14:23;;;;;;;19.87;17.97;;;14.40;84.40;;;;;;6187058;28;20235;-80
2023/09/27 05:17:26;;;;;;;20.97;18.97;;;14.40;84.40;;;;;;6187222;28;20928;-81
2023/09/27 05:20:29;;;;;;;24.53;22.07;;;14.40;84.40;;;;;;6187253;28;20239;-83
2023/09/27 05:23:32;;;;;;;22.00;19.97;;;14.40;84.50;;;;;;6187754;28;20595;-82
2023/09/27 05:26:35;;;;;;;22.57;20.27;;;14.40;84.50;;;;;;6186836;28;20279;-83
2023/09/27 05:29:40;;;;;;;21.07;19.03;;;14.40;84.50;;;;;;6188435;28;20236;-82
2023/09/27 05:32:43;;;;;;;21.50;19.47;;;14.50;84.50;;;;;;6188347;28;20306;-80
2023/09/27 05:35:50;;;;;;;22.63;20.43;;;14.50;84.50;;;;;;6185547;28;20807;-80
2023/09/27 05:38:53;;;;;;;21.60;19.70;;;14.50;84.50;;;;;;6182747;28;20240;-84
2023/09/27 05:41:57;;;;;;;23.33;20.97;;;14.50;84.50;;;;;;6186116;28;20743;-82
2023/09/27 05:45:01;;;;;;;23.37;21.20;;;14.60;84.50;;;;;;6188766;28;20239;-82
2023/09/27 05:48:05;;;;;;;23.77;21.40;;;14.60;84.50;;;;;;6182074;28;20324;-82
2023/09/27 05:51:09;;;;;;;21.97;19.93;;;14.70;84.50;;;;;;6177106;28;20256;-84
2023/09/27 05:54:12;;;;;;;22.90;20.77;;;14.70;84.50;;;;;;6187560;28;20236;-81
2023/09/27 05:57:15;;;;;;;24.40;22.00;;;14.70;84.40;;;;;;6188625;28;20228;-82
2023/09/27 06:00:26;;;;;;;22.77;20.57;;;14.70;84.40;;;;;;6188021;28;20232;-84
2023/09/27 06:03:31;;;;;;;21.50;19.37;;;14.70;84.40;;;;;;6185391;28;20240;-82
2023/09/27 06:06:36;;;;;;;22.40;20.27;;;14.70;84.50;;;;;;6187789;28;20255;-82
2023/09/27 06:09:39;;;;;;;21.47;19.37;;;14.80;84.50;;;;;;6189969;28;20343;-81
2023/09/27 06:12:42;;;;;;;20.70;18.73;;;14.80;84.50;;;;;;6178247;28;20264;-82
2023/09/27 06:15:47;;;;;;;22.13;20.03;;;14.90;84.50;;;;;;6177294;28;20594;-84
2023/09/27 06:18:50;;;;;;;21.20;19.27;;;14.90;84.60;;;;;;6187532;28;20232;-83
2023/09/27 06:21:54;;;;;;;22.13;20.00;;;15.00;84.60;;;;;;6190141;28;20343;-76
2023/09/27 06:24:57;;;;;;;22.83;20.63;;;15.10;84.50;;;;;;6186661;28;20255;-81
2023/09/27 06:28:01;;;;;;;21.77;19.60;;;15.20;84.50;;;;;;6196253;28;20266;-81
2023/09/27 06:31:07;;;;;;;23.07;20.77;;;15.30;84.50;;;;;;6190568;28;20248;-83
2023/09/27 06:34:10;;;;;;;23.93;21.73;;;15.40;84.50;;;;;;6190809;28;20318;-81
2023/09/27 06:37:13;;;;;;;23.10;20.97;;;15.50;84.50;;;;;;6192118;28;20365;-83
2023/09/27 06:40:18;;;;;;;23.53;21.07;;;15.60;84.50;;;;;;6188251;28;20244;-82
2023/09/27 06:43:22;;;;;;;22.03;20.17;;;15.80;84.40;;;;;;6186130;28;20228;-81
2023/09/27 06:46:27;;;;;;;27.33;24.43;;;16.00;84.30;;;;;;6215078;28;20224;-77
2023/09/27 06:49:48;;;;;;;27.00;24.07;;;16.00;84.10;;;;;;6215821;28;20366;-77
2023/09/27 06:52:51;;;;;;;23.23;21.00;;;16.10;83.70;;;;;;6224034;28;20228;-78
2023/09/27 06:56:09;;;;;;;23.93;20.27;;;16.20;83.70;;;;;;6214967;28;20291;-76
2023/09/27 06:59:12;;;;;;;23.30;20.80;;;16.40;83.60;;;;;;6236730;28;20247;-77
2023/09/27 07:02:17;;;;;;;21.97;19.87;;;16.50;83.40;;;;;;6214078;28;20235;-78
2023/09/27 07:05:22;;;;;;;25.67;22.30;;;16.60;83.30;;;;;;6209402;28;20246;-78
2023/09/27 07:08:25;;;;;;;23.67;21.17;;;16.80;83.30;;;;;;6219248;28;20283;-79
2023/09/27 07:11:28;;;;;;;22.43;19.70;;;17.30;83.20;;;;;;6213942;28;20223;-77
2023/09/27 07:14:31;;;;;;;21.07;18.90;;;17.60;81.80;;;;;;6213777;28;20224;-78
2023/09/27 07:17:37;;;;;;;22.33;19.43;;;17.80;80.80;;;;;;6213018;28;20246;-77
2023/09/27 07:20:42;;;;;;;23.07;20.87;;;17.80;80.50;;;;;;6209209;28;20219;-84
2023/09/27 07:23:45;;;;;;;18.37;16.63;;;17.80;80.20;;;;;;6222430;28;20235;-79
2023/09/27 07:26:52;;;;;;;22.77;20.57;;;17.70;80.40;;;;;;6217373;28;20220;-81
2023/09/27 07:29:55;;;;;;;24.60;22.20;;;17.80;80.30;;;;;;6221507;28;20255;-77
2023/09/27 07:33:00;;;;;;;30.33;25.93;;;17.80;80.10;;;;;;6218085;28;20220;-78
2023/09/27 07:36:06;;;;;;;22.83;20.67;;;17.90;78.70;;;;;;6205938;28;20289;-77
2023/09/27 07:39:13;;;;;;;22.90;20.67;;;18.00;78.90;;;;;;6216934;28;20240;-78
2023/09/27 07:42:16;;;;;;;23.37;21.07;;;18.00;78.90;;;;;;6216411;28;20239;-77
2023/09/27 07:45:21;;;;;;;29.37;24.07;;;18.10;78.70;;;;;;6209610;28;20853;-78
2023/09/27 07:48:27;;;;;;;24.47;22.00;;;18.10;77.90;;;;;;6221357;28;20243;-79
2023/09/27 07:51:30;;;;;;;22.70;20.50;;;18.20;77.70;;;;;;6212822;28;20244;-76
2023/09/27 07:54:33;;;;;;;24.97;21.40;;;18.30;77.80;;;;;;6216485;28;20350;-77
2023/09/27 07:57:37;;;;;;;26.57;23.83;;;18.40;77.70;;;;;;6205168;28;20240;-81
2023/09/27 08:00:40;;;;;;;33.37;25.47;;;18.50;77.30;;;;;;6188116;28;20244;-84
2023/09/27 08:03:45;;;;;;;26.90;22.47;;;18.60;76.80;;;;;;6191948;28;20251;-82
2023/09/27 08:06:48;;;;;;;25.40;21.13;;;18.70;76.60;;;;;;6191829;28;20738;-83
2023/09/27 08:09:51;;;;;;;22.17;19.90;;;18.80;76.50;;;;;;6184912;28;20311;-79
2023/09/27 08:13:00;;;;;;;19.37;17.37;;;18.90;76.50;;;;;;6189442;28;20318;-82
2023/09/27 08:16:06;;;;;;;20.80;18.13;;;19.00;76.40;;;;;;6185248;28;20647;-82
2023/09/27 08:19:10;;;;;;;21.57;19.50;;;19.10;76.30;;;;;;6189560;28;20231;-83
2023/09/27 08:22:14;;;;;;;22.30;20.10;;;19.30;76.00;;;;;;6187920;28;20239;-82
2023/09/27 08:25:20;;;;;;;19.17;17.27;;;19.40;75.50;;;;;;6195262;28;20287;-80
2023/09/27 08:28:23;;;;;;;22.47;20.03;;;19.50;75.30;;;;;;6188980;28;20337;-81
2023/09/27 08:31:27;;;;;;;24.33;20.93;;;19.50;74.80;;;;;;6191975;28;20313;-82
2023/09/27 08:34:32;;;;;;;18.67;16.87;;;19.70;74.00;;;;;;6190632;28;20235;-83
2023/09/27 08:37:36;;;;;;;25.43;21.43;;;19.90;73.90;;;;;;6189124;28;20243;-82
2023/09/27 08:40:39;;;;;;;19.03;17.23;;;20.00;73.20;;;;;;6190295;28;20228;-82
2023/09/27 08:43:43;;;;;;;20.70;18.70;;;20.10;73.30;;;;;;6190220;28;20254;-82
2023/09/27 08:46:47;;;;;;;19.37;17.37;;;20.30;72.70;;;;;;6189946;28;20240;-80
2023/09/27 08:49:52;;;;;;;21.13;19.00;;;20.50;72.30;;;;;;6186756;28;20747;-82
2023/09/27 08:52:56;;;;;;;23.07;19.87;;;20.60;71.60;;;;;;6190448;28;20299;-81
2023/09/27 08:56:01;;;;;;;20.13;17.17;;;20.80;70.50;;;;;;6184167;28;20275;-81
2023/09/27 08:59:04;;;;;;;22.00;19.70;;;20.90;70.30;;;;;;6189829;28;20503;-82
2023/09/27 09:02:09;;;;;;;19.17;16.90;;;21.10;69.60;;;;;;6185397;28;20251;-81
2023/09/27 09:05:15;;;;;;;24.90;17.37;;;21.20;69.90;;;;;;6191011;28;20251;-78
2023/09/27 09:08:19;;;;;;;15.37;13.97;;;21.30;68.40;;;;;;6189809;28;20255;-80
2023/09/27 09:11:47;;;;;;;13.93;12.63;;;21.50;68.20;;;;;;6192058;28;20232;-79
2023/09/27 09:14:54;;;;;;;14.80;13.50;;;21.60;68.20;;;;;;6190368;28;20247;-80
2023/09/27 09:17:58;;;;;;;16.27;14.63;;;21.80;68.00;;;;;;6191728;28;20327;-82
2023/09/27 09:21:10;;;;;;;15.00;13.53;;;21.90;67.00;;;;;;6184801;28;20252;-82
2023/09/27 09:24:20;;;;;;;16.70;14.23;;;22.00;67.20;;;;;;6191907;28;20288;-79
2023/09/27 09:27:23;;;;;;;19.53;13.60;;;22.10;66.60;;;;;;6189991;28;20247;-80
2023/09/27 09:30:38;;;;;;;18.93;15.93;;;22.30;66.30;;;;;;6190302;28;20251;-80
2023/09/27 09:33:42;;;;;;;17.47;15.67;;;22.30;65.70;;;;;;6188955;28;20248;-80
2023/09/27 09:36:48;;;;;;;15.37;13.97;;;22.50;65.30;;;;;;6189891;28;20228;-79
2023/09/27 09:40:12;;;;;;;15.83;14.30;;;22.50;65.20;;;;;;6186508;28;20376;-80
2023/09/27 09:43:29;;;;;;;13.83;12.53;;;22.60;64.00;;;;;;6178090;28;20302;-78
2023/09/27 09:46:32;;;;;;;16.23;13.73;;;22.70;64.50;;;;;;6176387;28;20240;-81
2023/09/27 09:49:35;;;;;;;17.53;13.57;;;22.90;64.50;;;;;;6196994;28;20295;-82
2023/09/27 09:52:40;;;;;;;13.60;12.27;;;23.00;64.40;;;;;;6189292;28;20288;-80
2023/09/27 09:55:49;;;;;;;13.83;12.50;;;23.10;63.90;;;;;;6185372;28;20240;-80
2023/09/27 09:59:13;;;;;;;14.60;13.07;;;23.10;64.00;;;;;;6182170;28;20236;-81
2023/09/27 10:02:21;;;;;;;11.37;10.47;;;23.20;63.50;;;;;;6191227;28;20318;-81
2023/09/27 10:05:24;;;;;;;14.43;12.83;;;23.40;63.80;;;;;;6180507;28;20366;-82
2023/09/27 10:08:34;;;;;;;14.97;13.00;;;23.50;63.30;;;;;;6184760;28;20724;-79
2023/09/27 10:11:37;;;;;;;11.07;10.03;;;23.80;62.80;;;;;;6191319;28;20240;-79
2023/09/27 10:14:42;;;;;;;14.37;10.63;;;23.90;63.10;;;;;;6183756;28;20262;-80
2023/09/27 10:17:45;;;;;;;12.17;10.63;;;23.90;61.00;;;;;;6199419;28;20234;-80
2023/09/27 10:21:03;;;;;;;12.53;11.43;;;24.00;61.50;;;;;;6190425;28;20720;-81
2023/09/27 10:24:08;;;;;;;11.53;10.53;;;24.00;61.50;;;;;;6192959;28;20300;-81
2023/09/27 10:27:11;;;;;;;13.77;12.47;;;24.20;62.00;;;;;;6187323;28;20259;-81
2023/09/27 10:30:14;;;;;;;12.37;11.10;;;24.40;61.90;;;;;;6192696;28;20236;-81
2023/09/27 10:33:34;;;;;;;9.97;9.33;;;24.50;61.10;;;;;;6200256;28;20392;-82
2023/09/27 10:36:46;;;;;;;9.23;8.47;;;24.60;59.70;;;;;;6194024;28;20594;-83
2023/09/27 10:40:27;;;;;;;9.63;8.67;;;24.60;59.30;;;;;;6174051;28;20239;-80
2023/09/27 10:43:40;;;;;;;10.47;8.50;;;24.70;59.30;;;;;;6174080;28;20319;-84
2023/09/27 10:46:47;;;;;;;10.47;8.80;;;25.00;59.00;;;;;;6198685;28;20244;-79
2023/09/27 10:49:50;;;;;;;9.70;8.73;;;24.80;58.60;;;;;;6200477;28;20243;-80
2023/09/27 10:52:53;;;;;;;10.17;9.27;;;24.80;58.80;;;;;;6190954;28;20237;-81
2023/09/27 10:55:57;;;;;;;9.23;8.50;;;25.00;58.80;;;;;;6192530;28;20707;-80
2023/09/27 10:59:01;;;;;;;8.83;7.97;;;25.00;58.20;;;;;;6192054;28;20232;-82
2023/09/27 11:02:04;;;;;;;8.57;7.77;;;25.20;58.20;;;;;;6196047;28;20240;-81
2023/09/27 11:05:08;;;;;;;8.17;7.47;;;25.20;57.90;;;;;;6192753;28;20261;-84
2023/09/27 11:08:12;;;;;;;8.33;7.73;;;25.30;57.80;;;;;;6192346;28;20367;-84
2023/09/27 11:11:17;;;;;;;8.57;7.87;;;25.40;57.90;;;;;;6190283;28;20244;-84
2023/09/27 11:14:28;;;;;;;8.40;7.70;;;25.50;57.90;;;;;;6194027;28;20770;-82
2023/09/27 11:17:31;;;;;;;8.33;7.57;;;25.60;57.70;;;;;;6195775;28;20269;-83
2023/09/27 11:20:34;;;;;;;8.87;8.03;;;25.50;56.80;;;;;;6194529;28;20240;-83
2023/09/27 11:23:55;;;;;;;8.10;7.50;;;25.60;56.10;;;;;;6194337;28;20242;-81
2023/09/27 11:26:59;;;;;;;9.03;8.17;;;25.80;56.10;;;;;;6195280;28;20236;-83
2023/09/27 11:30:03;;;;;;;8.60;8.10;;;25.80;56.30;;;;;;6195893;28;20236;-83
2023/09/27 11:33:08;;;;;;;8.00;7.20;;;25.80;56.00;;;;;;6190278;28;20299;-85
2023/09/27 11:36:11;;;;;;;10.23;8.00;;;25.90;55.50;;;;;;6194858;28;20289;-82
2023/09/27 11:39:16;;;;;;;7.70;7.00;;;26.10;55.50;;;;;;6192580;28;20319;-84
2023/09/27 11:42:26;;;;;;;7.67;6.97;;;26.10;54.40;;;;;;6191664;28;20239;-83
2023/09/27 11:45:30;;;;;;;10.27;7.33;;;26.20;54.70;;;;;;6189345;28;20232;-81
2023/09/27 11:48:34;;;;;;;7.17;6.67;;;26.20;54.30;;;;;;6194606;28;20239;-80
2023/09/27 11:51:38;;;;;;;8.27;7.43;;;26.20;54.10;;;;;;6194111;28;20256;-81
2023/09/27 11:54:45;;;;;;;8.20;7.67;;;26.30;54.40;;;;;;6191764;28;20251;-81
2023/09/27 11:57:49;;;;;;;7.83;7.27;;;26.40;55.00;;;;;;6190404;28;20687;-83
2023/09/27 12:00:52;;;;;;;7.63;7.03;;;26.60;54.70;;;;;;6202786;28;20304;-82
2023/09/27 12:03:55;;;;;;;8.47;7.60;;;26.60;54.80;;;;;;6189896;28;20247;-83
2023/09/27 12:06:59;;;;;;;7.53;6.93;;;26.60;54.40;;;;;;6192004;28;20358;-83
2023/09/27 12:10:05;;;;;;;10.13;8.07;;;26.80;54.80;;;;;;6197290;28;20235;-83
2023/09/27 12:13:09;;;;;;;8.50;7.70;;;26.80;54.80;;;;;;6197827;28;20244;-84
2023/09/27 12:16:14;;;;;;;7.50;6.90;;;26.90;55.10;;;;;;6193471;28;20260;-81
2023/09/27 12:19:17;;;;;;;12.73;7.77;;;27.00;54.10;;;;;;6193870;28;20236;-80
2023/09/27 12:22:21;;;;;;;7.40;6.90;;;27.00;54.00;;;;;;6178269;28;20232;-84
2023/09/27 12:25:26;;;;;;;7.33;6.67;;;27.00;54.50;;;;;;6191687;28;20259;-83
2023/09/27 12:28:33;;;;;;;9.27;6.90;;;27.00;53.60;;;;;;6194008;28;20242;-81
2023/09/27 12:31:36;;;;;;;10.50;7.13;;;26.90;53.60;;;;;;6191522;28;20251;-82
2023/09/27 12:34:40;;;;;;;7.47;6.97;;;26.80;53.70;;;;;;6185186;28;20645;-82
2023/09/27 12:37:43;;;;;;;6.90;6.40;;;26.60;53.80;;;;;;6190733;28;20730;-78
2023/09/27 12:40:46;;;;;;;9.10;8.30;;;26.60;54.50;;;;;;6188092;28;20763;-79
2023/09/27 12:43:51;;;;;;;8.40;7.60;;;26.70;54.10;;;;;;6194234;28;20246;-80
2023/09/27 12:46:55;;;;;;;8.27;7.50;;;26.50;54.50;;;;;;6192392;28;21082;-81
2023/09/27 12:49:59;;;;;;;8.43;7.60;;;26.50;54.80;;;;;;6194910;28;20224;-79
2023/09/27 12:53:04;;;;;;;12.60;7.93;;;26.60;54.20;;;;;;6182251;28;20239;-81
2023/09/27 12:56:07;;;;;;;8.23;7.47;;;26.60;54.00;;;;;;6195664;28;20232;-81
2023/09/27 12:59:12;;;;;;;8.23;7.63;;;26.70;54.20;;;;;;6190755;28;20728;-80
2023/09/27 13:02:15;;;;;;;8.23;7.83;;;26.80;53.90;;;;;;6194757;28;20363;-80
2023/09/27 13:05:18;;;;;;;7.87;7.27;;;26.70;54.00;;;;;;6191812;28;20394;-81
2023/09/27 13:08:23;;;;;;;7.53;6.93;;;26.70;54.70;;;;;;6191752;28;20232;-81
2023/09/27 13:11:26;;;;;;;7.83;7.23;;;26.90;54.70;;;;;;6186375;28;20286;-80
2023/09/27 13:14:31;;;;;;;8.23;7.57;;;26.90;54.30;;;;;;6184429;28;20315;-80
2023/09/27 13:17:34;;;;;;;9.40;7.13;;;26.90;53.70;;;;;;6193582;28;20240;-82
2023/09/27 13:20:38;;;;;;;7.27;6.80;;;26.90;53.70;;;;;;6191570;28;20246;-81
2023/09/27 13:23:42;;;;;;;7.60;6.90;;;26.90;53.70;;;;;;6194768;28;20258;-80
2023/09/27 13:26:45;;;;;;;7.37;6.80;;;27.00;53.30;;;;;;6189920;28;20251;-81
2023/09/27 13:29:50;;;;;;;7.40;6.80;;;27.10;53.00;;;;;;6193131;28;20771;-79
2023/09/27 13:32:53;;;;;;;7.03;6.53;;;27.10;53.10;;;;;;6188204;28;20846;-79
2023/09/27 13:35:58;;;;;;;7.07;6.50;;;27.00;53.70;;;;;;6197114;28;20736;-83
2023/09/27 13:39:05;;;;;;;8.17;6.63;;;27.10;53.50;;;;;;6193410;28;20313;-80
2023/09/27 13:42:09;;;;;;;7.67;6.90;;;27.20;53.40;;;;;;6197867;28;20605;-81
2023/09/27 13:45:14;;;;;;;7.43;6.80;;;27.20;53.20;;;;;;6192958;28;20616;-79
2023/09/27 13:48:17;;;;;;;6.87;6.47;;;27.20;53.10;;;;;;6193136;28;20246;-80
2023/09/27 13:51:20;;;;;;;7.13;6.63;;;27.20;52.80;;;;;;6198315;28;20243;-79
2023/09/27 13:54:23;;;;;;;7.00;6.60;;;27.10;52.60;;;;;;6195887;28;20262;-79
2023/09/27 13:57:27;;;;;;;9.10;7.77;;;27.00;53.30;;;;;;6195098;28;20727;-79
2023/09/27 14:00:31;;;;;;;7.77;6.97;;;26.90;53.90;;;;;;6196809;28;20284;-80
2023/09/27 14:03:34;;;;;;;8.17;7.57;;;26.70;54.40;;;;;;6197292;28;20595;-81
2023/09/27 14:06:37;;;;;;;7.43;6.90;;;26.60;54.80;;;;;;6193918;28;20620;-82
2023/09/27 14:09:41;;;;;;;7.70;7.20;;;26.40;55.20;;;;;;6195438;28;20335;-82
2023/09/27 14:12:44;;;;;;;8.13;7.53;;;26.40;55.30;;;;;;6196819;28;20282;-81
2023/09/27 14:15:48;;;;;;;8.73;8.13;;;26.20;54.70;;;;;;6194848;28;20240;-78
2023/09/27 14:18:52;;;;;;;7.93;7.37;;;26.20;55.30;;;;;;6198000;28;20329;-77
2023/09/27 14:21:58;;;;;;;8.33;7.73;;;26.20;55.60;;;;;;6195531;28;20345;-79
2023/09/27 14:25:01;;;;;;;8.93;8.17;;;26.20;56.20;;;;;;6195426;28;20263;-80
2023/09/27 14:28:05;;;;;;;9.10;8.40;;;26.20;55.90;;;;;;6195309;28;20240;-78
2023/09/27 14:31:09;;;;;;;8.23;7.70;;;26.10;55.50;;;;;;6194460;28;20303;-79
2023/09/27 14:34:14;;;;;;;9.23;8.50;;;26.00;56.10;;;;;;6194992;28;20627;-78
2023/09/27 14:37:17;;;;;;;7.07;6.67;;;26.00;56.70;;;;;;6195831;28;20228;-78
2023/09/27 14:40:20;;;;;;;9.03;8.43;;;25.90;57.10;;;;;;6195354;28;20310;-78
2023/09/27 14:43:23;;;;;;;9.60;8.70;;;25.90;56.40;;;;;;6197837;28;20287;-78
2023/09/27 14:46:28;;;;;;;9.30;8.47;;;26.00;56.10;;;;;;6196848;28;20247;-78
2023/09/27 14:49:31;;;;;;;8.60;8.00;;;26.00;56.20;;;;;;6188117;28;20343;-78
2023/09/27 14:52:34;;;;;;;9.10;8.43;;;26.00;56.50;;;;;;6186242;28;20231;-78
2023/09/27 14:55:38;;;;;;;9.73;8.93;;;26.00;56.80;;;;;;6189674;28;20236;-79
2023/09/27 14:58:41;;;;;;;9.07;8.33;;;26.00;56.80;;;;;;6192311;28;20232;-79
2023/09/27 15:01:46;;;;;;;9.77;9.00;;;25.90;57.40;;;;;;6197790;28;20235;-80
2023/09/27 15:04:49;;;;;;;10.47;9.43;;;25.80;57.20;;;;;;6197852;28;20374;-77
2023/09/27 15:07:52;;;;;;;10.80;9.77;;;25.80;57.60;;;;;;6196267;28;20619;-78
2023/09/27 15:10:56;;;;;;;10.13;9.43;;;25.70;57.80;;;;;;6201301;28;20243;-78
2023/09/27 15:13:59;;;;;;;10.20;9.30;;;25.60;58.20;;;;;;6194927;28;20232;-78
2023/09/27 15:17:03;;;;;;;9.07;8.37;;;25.40;58.40;;;;;;6187013;28;20248;-79
2023/09/27 15:20:08;;;;;;;11.27;9.47;;;25.20;59.30;;;;;;6190968;28;20370;-79
2023/09/27 15:23:11;;;;;;;9.50;8.80;;;25.00;59.70;;;;;;6191075;28;20872;-78
2023/09/27 15:26:14;;;;;;;9.93;9.23;;;24.90;60.00;;;;;;6195212;28;20314;-78
2023/09/27 15:29:17;;;;;;;10.97;9.87;;;24.70;60.30;;;;;;6190577;28;20259;-78
2023/09/27 15:32:22;;;;;;;10.63;9.67;;;24.60;60.70;;;;;;6191635;28;20240;-79
2023/09/27 15:35:26;;;;;;;11.17;9.70;;;24.40;61.20;;;;;;6183092;28;20243;-77
2023/09/27 15:38:29;;;;;;;10.83;9.97;;;24.30;61.60;;;;;;6187523;28;20262;-79
2023/09/27 15:41:32;;;;;;;11.30;10.30;;;24.10;62.10;;;;;;6188177;28;20235;-81
2023/09/27 15:44:38;;;;;;;12.13;10.87;;;24.00;62.40;;;;;;6183369;28;20322;-81